createdAt,value
2023-03-03T00:01:35.902Z,0.40
2023-03-03T00:06:40.590Z,0.40
2023-03-03T00:11:43.878Z,0.40
2023-03-03T00:16:49.207Z,0.40
2023-03-03T00:21:57.059Z,0.40
2023-03-03T00:27:04.296Z,0.50
2023-03-03T00:32:28.481Z,0.50
2023-03-03T00:37:35.668Z,0.50
2023-03-03T00:42:38.956Z,0.40
2023-03-03T00:47:45.068Z,0.30
2023-03-03T00:53:05.110Z,0.10
2023-03-03T00:58:08.344Z,0.10
2023-03-03T01:03:18.746Z,0.20
2023-03-03T01:08:24.186Z,0.10
2023-03-03T01:13:31.030Z,0.10
2023-03-03T01:18:36.123Z,0.10
2023-03-03T01:23:41.102Z,0.10
2023-03-03T01:28:44.923Z,0.00
2023-03-03T01:33:48.113Z,0.00
2023-03-03T01:38:53.138Z,-0.10
2023-03-03T01:43:56.396Z,0.00
2023-03-03T01:49:03.406Z,-0.10
2023-03-03T01:54:13.610Z,-0.10
2023-03-03T01:59:22.148Z,-0.10
2023-03-03T02:04:26.538Z,0.00
2023-03-03T02:09:38.359Z,-0.10
2023-03-03T02:14:41.625Z,-0.10
2023-03-03T02:19:53.847Z,-0.10
2023-03-03T02:25:03.201Z,-0.10
2023-03-03T02:30:15.547Z,-0.10
2023-03-03T02:35:31.743Z,0.00
2023-03-03T02:40:39.864Z,0.00
2023-03-03T02:45:45.460Z,-0.10
2023-03-03T02:50:48.877Z,-0.20
2023-03-03T02:55:52.131Z,-0.20
2023-03-03T03:00:57.281Z,-0.30
2023-03-03T03:06:00.742Z,-0.30
2023-03-03T03:11:05.852Z,-0.40
2023-03-03T03:16:11.307Z,-0.40
2023-03-03T03:21:15.341Z,-0.40
2023-03-03T03:26:21.085Z,-0.30
2023-03-03T03:31:27.582Z,-0.30
2023-03-03T03:36:33.087Z,-0.30
2023-03-03T03:41:37.132Z,-0.40
2023-03-03T03:46:42.354Z,-0.40
2023-03-03T03:51:47.378Z,-0.40
2023-03-03T03:56:54.622Z,-0.30
2023-03-03T04:02:00.111Z,-0.30
2023-03-03T04:07:03.480Z,-0.30
2023-03-03T04:12:07.096Z,-0.30
2023-03-03T04:17:18.389Z,-0.20
2023-03-03T04:22:22.824Z,-0.20
2023-03-03T04:27:26.663Z,-0.20
2023-03-03T04:32:33.759Z,-0.20
2023-03-03T04:37:39.918Z,-0.20
2023-03-03T04:42:43.960Z,-0.20
2023-03-03T04:47:48.655Z,-0.20
2023-03-03T04:52:53.147Z,-0.30
2023-03-03T04:57:56.555Z,-0.30
2023-03-03T05:03:01.661Z,-0.20
2023-03-03T05:08:05.557Z,-0.20
2023-03-03T05:13:09.575Z,-0.20
2023-03-03T05:18:14.188Z,-0.20
2023-03-03T05:23:17.522Z,-0.30
2023-03-03T05:28:20.806Z,-0.20
2023-03-03T05:33:25.495Z,-0.20
2023-03-03T05:38:28.858Z,-0.30
2023-03-03T05:43:32.580Z,-0.30
2023-03-03T05:48:37.256Z,-0.20
2023-03-03T05:53:40.769Z,-0.10
2023-03-03T05:58:44.009Z,-0.20
2023-03-03T06:03:48.704Z,-0.20
2023-03-03T06:08:55.520Z,-0.20
2023-03-03T06:14:00.570Z,-0.10
2023-03-03T06:19:05.335Z,-0.10
2023-03-03T06:24:09.635Z,-0.10
2023-03-03T06:29:15.286Z,-0.20
2023-03-03T06:34:20.488Z,-0.20
2023-03-03T06:39:23.987Z,-0.20
2023-03-03T06:44:28.978Z,-0.30
2023-03-03T06:49:34.041Z,-0.10
2023-03-03T06:54:37.499Z,-0.10
2023-03-03T06:59:42.571Z,-0.10
2023-03-03T07:04:48.173Z,-0.10
2023-03-03T07:09:53.588Z,0.00
2023-03-03T07:14:59.413Z,-0.10
2023-03-03T07:20:16.227Z,-0.10
2023-03-03T07:25:28.513Z,0.00
2023-03-03T07:30:32.009Z,0.20
2023-03-03T07:35:41.569Z,0.20
2023-03-03T07:40:49.362Z,0.30
2023-03-03T07:45:53.308Z,0.30
2023-03-03T07:50:59.296Z,0.30
2023-03-03T07:56:04.597Z,0.30
2023-03-03T08:01:42.719Z,0.60
2023-03-03T08:06:49.999Z,0.80
2023-03-03T08:11:56.146Z,0.80
2023-03-03T08:17:01.688Z,0.70
2023-03-03T08:22:16.017Z,0.70
2023-03-03T08:27:19.550Z,0.80
2023-03-03T08:32:22.902Z,0.90
2023-03-03T08:37:27.632Z,1.20
2023-03-03T08:42:31.561Z,1.30
2023-03-03T08:47:38.377Z,1.50
2023-03-03T08:52:43.159Z,1.60
2023-03-03T08:57:46.555Z,1.50
2023-03-03T09:02:50.653Z,1.50
2023-03-03T09:07:55.889Z,1.60
2023-03-03T09:13:01.968Z,1.60
2023-03-03T09:18:15.949Z,1.60
2023-03-03T09:23:36.132Z,1.60
2023-03-03T09:28:39.866Z,1.60
2023-03-03T09:33:46.470Z,1.70
2023-03-03T09:38:51.458Z,1.80
2023-03-03T09:44:19.910Z,1.80
2023-03-03T09:49:29.947Z,1.90
2023-03-03T09:54:45.871Z,2.00
2023-03-03T10:00:05.441Z,2.10
2023-03-03T10:05:26.558Z,2.30
2023-03-03T10:10:50.532Z,2.40
2023-03-03T10:16:07.513Z,2.70
2023-03-03T10:21:12.765Z,2.70
2023-03-03T10:26:38.236Z,2.60
2023-03-03T10:31:57.086Z,2.60
2023-03-03T10:37:06.522Z,2.50
2023-03-03T10:42:35.646Z,2.70
2023-03-03T10:48:05.604Z,3.00
2023-03-03T10:53:20.983Z,2.90
2023-03-03T10:58:47.985Z,3.00
2023-03-03T11:04:26.187Z,3.20
2023-03-03T11:09:58.616Z,3.10
2023-03-03T11:15:18.986Z,3.10
2023-03-03T11:20:35.498Z,3.10
2023-03-03T11:25:47.639Z,3.20
2023-03-03T11:31:06.190Z,3.00
2023-03-03T11:36:13.626Z,3.20
2023-03-03T11:41:32.982Z,3.30
2023-03-03T11:46:41.763Z,3.20
2023-03-03T11:51:53.687Z,3.30
2023-03-03T11:57:12.033Z,3.40
2023-03-03T12:02:49.099Z,3.70
2023-03-03T12:08:01.006Z,3.90
2023-03-03T12:13:07.603Z,3.90
2023-03-03T12:18:33.334Z,3.80
2023-03-03T12:23:48.290Z,3.70
2023-03-03T12:28:54.949Z,3.60
2023-03-03T12:34:09.849Z,3.70
2023-03-03T12:39:33.773Z,3.90
2023-03-03T12:44:45.138Z,3.90
2023-03-03T12:50:10.731Z,3.90
2023-03-03T12:55:22.266Z,3.90
2023-03-03T13:00:33.921Z,3.60
2023-03-03T13:05:49.257Z,3.60
2023-03-03T13:10:59.722Z,3.60
2023-03-03T13:16:06.829Z,3.70
2023-03-03T13:21:19.041Z,3.80
2023-03-03T13:26:27.673Z,3.80
2023-03-03T13:31:34.855Z,3.80
2023-03-03T13:36:43.335Z,3.70
2023-03-03T13:41:49.235Z,3.80
2023-03-03T13:47:05.390Z,3.70
2023-03-03T13:52:12.770Z,3.50
2023-03-03T13:57:27.012Z,3.50
2023-03-03T14:02:51.143Z,3.40
2023-03-03T14:08:01.002Z,3.50
2023-03-03T14:13:07.889Z,3.50
2023-03-03T14:18:24.240Z,3.60
2023-03-03T14:23:34.608Z,3.70
2023-03-03T14:28:44.036Z,3.90
2023-03-03T14:33:58.708Z,3.90
2023-03-03T14:39:03.995Z,4.00
2023-03-03T14:44:27.042Z,4.10
2023-03-03T14:49:32.950Z,4.10
2023-03-03T14:54:40.443Z,4.00
2023-03-03T14:59:57.585Z,4.00
2023-03-03T15:05:22.817Z,4.00
2023-03-03T15:10:37.996Z,3.90
2023-03-03T15:15:53.024Z,3.90
2023-03-03T15:21:03.105Z,4.00
2023-03-03T15:26:11.531Z,4.00
2023-03-03T15:31:31.220Z,4.00
2023-03-03T15:36:41.531Z,3.90
2023-03-03T15:41:56.864Z,3.80
2023-03-03T15:47:23.409Z,3.70
2023-03-03T15:52:43.356Z,3.60
2023-03-03T15:58:01.828Z,3.50
2023-03-03T16:03:15.359Z,3.50
2023-03-03T16:08:23.724Z,3.50
2023-03-03T16:13:45.624Z,3.30
2023-03-03T16:19:00.563Z,3.20
2023-03-03T16:24:14.283Z,3.10
2023-03-03T16:29:40.492Z,3.10
2023-03-03T16:34:55.708Z,3.10
2023-03-03T16:40:08.058Z,3.10
2023-03-03T16:45:22.835Z,3.10
2023-03-03T16:50:32.423Z,3.20
2023-03-03T16:55:43.586Z,3.10
2023-03-03T17:00:56.376Z,3.10
2023-03-03T17:06:05.304Z,3.10
2023-03-03T17:11:18.302Z,3.10
2023-03-03T17:16:39.860Z,3.20
2023-03-03T17:22:05.382Z,3.20
2023-03-03T17:27:15.808Z,3.20
2023-03-03T17:32:40.943Z,3.30
2023-03-03T17:37:54.081Z,3.40
2023-03-03T17:43:05.051Z,3.40
2023-03-03T17:48:27.064Z,3.30
2023-03-03T17:53:47.283Z,3.30
2023-03-03T17:59:30.789Z,3.40
2023-03-03T18:05:01.568Z,3.30
2023-03-03T18:10:38.394Z,3.40
2023-03-03T18:16:10.843Z,3.40
2023-03-03T18:21:22.516Z,3.30
2023-03-03T18:26:38.122Z,3.20
2023-03-03T18:32:03.941Z,3.20
2023-03-03T18:37:12.798Z,3.30
2023-03-03T18:42:38.227Z,3.30
2023-03-03T18:48:04.910Z,3.40
2023-03-03T18:53:36.234Z,3.40
2023-03-03T18:58:42.475Z,3.30
2023-03-03T19:04:10.963Z,3.40
2023-03-03T19:09:21.125Z,3.30
2023-03-03T19:14:38.018Z,3.40
2023-03-03T19:20:02.318Z,3.40
2023-03-03T19:25:18.491Z,3.40
2023-03-03T19:30:41.197Z,3.50
2023-03-03T19:36:22.402Z,3.50
2023-03-03T19:41:41.937Z,3.50
2023-03-03T19:46:59.956Z,3.50
2023-03-03T19:52:08.599Z,3.50
2023-03-03T19:57:24.740Z,3.40
2023-03-03T20:02:38.176Z,3.30
2023-03-03T20:07:49.137Z,3.10
2023-03-03T20:13:04.676Z,3.00
2023-03-03T20:18:36.888Z,3.10
2023-03-03T20:23:53.044Z,3.10
2023-03-03T20:29:16.941Z,3.10
2023-03-03T20:34:30.761Z,3.10
2023-03-03T20:39:54.200Z,3.10
2023-03-03T20:45:20.222Z,3.10
2023-03-03T20:50:27.992Z,3.10
2023-03-03T20:55:42.115Z,3.20
2023-03-03T21:00:54.315Z,3.10
2023-03-03T21:06:00.726Z,3.10
2023-03-03T21:11:05.385Z,3.00
2023-03-03T21:16:18.277Z,3.00
2023-03-03T21:21:21.973Z,2.90
2023-03-03T21:26:48.496Z,2.90
2023-03-03T21:31:54.996Z,2.90
2023-03-03T21:36:59.535Z,2.90
2023-03-03T21:42:05.433Z,2.80
2023-03-03T21:47:12.641Z,2.80
2023-03-03T21:52:18.489Z,2.70
2023-03-03T21:57:22.704Z,2.60
2023-03-03T22:02:27.786Z,2.40
2023-03-03T22:07:31.774Z,2.30
2023-03-03T22:12:35.344Z,2.40
2023-03-03T22:17:40.839Z,2.40
2023-03-03T22:22:44.516Z,2.40
2023-03-03T22:27:48.186Z,2.40
2023-03-03T22:32:57.911Z,2.40
2023-03-03T22:38:01.700Z,2.30
2023-03-03T22:43:06.712Z,2.40
2023-03-03T22:48:11.918Z,2.40
2023-03-03T22:53:15.247Z,2.30
2023-03-03T22:58:20.123Z,2.40
2023-03-03T23:03:25.702Z,2.40
2023-03-03T23:08:29.098Z,2.40
2023-03-03T23:13:32.807Z,2.50
2023-03-03T23:18:37.508Z,2.50
2023-03-03T23:23:41.116Z,2.60
2023-03-03T23:28:45.053Z,2.60
2023-03-03T23:33:50.063Z,2.60
2023-03-03T23:38:53.850Z,2.70
2023-03-03T23:43:57.485Z,2.70
2023-03-03T23:49:02.657Z,2.70
2023-03-03T23:54:06.520Z,2.70
2023-03-03T23:59:10.250Z,2.70
